Bangkok, Thailand

10:00 AM ICT on January 18, 2017 (GMT +0700)
Soi Ekkarat 15/2 | | Change Station

Elev 19 ft 13.96 °N, 100.60 °E | Updated 4 minutes ago

Partly Cloudy
Partly Cloudy
80.6 °F
Feels Like 86 °F
N
1.2
Wind Variable Wind from NNE
Gusts 4.3 mph

Today
High -- | Low -- °F
--% Chance of Precip.
Yesterday
High -- | Low -- °F
Precip. -- in
Pressure 30.01 in
Visibility 6.2 miles
Clouds Few 3000 ft
Heat Index 86 °F
Dew Point 76 °F
Humidity 85%
Rainfall 0.00 in
Snow Depth Not available.
6:45 AM 6:10 PM
Waning Gibbous, 67% visible
METAR VTBD 180230Z 09009KT 060V120 9999 FEW030 30/23 Q1016 NOSIG
Pressure 30.01 in
Visibility 6.2 miles
Clouds Few 3000 ft
Heat Index 86 °F
Dew Point 76 °F
Humidity 85%
Rainfall 0.00 in
Snow Depth Not available.
6:45 AM 6:10 PM
Waning Gibbous, 67% visible
METAR VTBD 180230Z 09009KT 060V120 9999 FEW030 30/23 Q1016 NOSIG

Get Your Daily Forecast Email!

Thanks for signing up!

Be on the lookout for a verification email in your inbox.

You'll start receiving the daily forecast at 8 AM.

×

10-Day Weather Forecast

No radar image for this location.
×

Almanac

Astronomy

Jan. 18, 2017 Rise Set
Actual Time
Civil Twilight
Nautical Twilight
Astronomical Twilight
Moon
Length of Visible Light
Length of Day
Tomorrow will be .
, % of the Moon is Illuminated

Today's Extremes

Country Highs Country Lows

Community

WunderPhotos

Upload Photos

1,962,540 photos uploaded!

WunderBlog® & News

Nearby

Air Quality

  Air Quality AQ Index Pollutant
Not available.

Snow Depth

Station Depth Elevation

Earthquake Activity

City Distance Mag. Time & Date
Minimum magnitude displayed is 2.5.

Coastal Water Temperatures

Place Temperature

Stations

Nearby Weather Stations

Station Location Temp. Windchill Dew Point Humidity Wind Precip. Elev Updated Type